sensor_id;sensor_type;location;lat;lon;timestamp;temperature;humidity
29813;DHT22;16707;48.106;11.548;2024-02-23T00:00:06;8.50;99.90
29813;DHT22;16707;48.106;11.548;2024-02-23T00:02:36;8.40;99.90
29813;DHT22;16707;48.106;11.548;2024-02-23T00:05:03;8.30;99.90
29813;DHT22;16707;48.106;11.548;2024-02-23T00:07:29;8.30;99.90
29813;DHT22;16707;48.106;11.548;2024-02-23T00:09:56;8.20;99.90
29813;DHT22;16707;48.106;11.548;2024-02-23T00:12:23;8.20;99.90
29813;DHT22;16707;48.106;11.548;2024-02-23T00:14:51;8.20;99.90
29813;DHT22;16707;48.106;11.548;2024-02-23T00:17:18;8.20;99.90
29813;DHT22;16707;48.106;11.548;2024-02-23T00:19:45;8.20;99.90
29813;DHT22;16707;48.106;11.548;2024-02-23T00:22:11;8.20;99.90
29813;DHT22;16707;48.106;11.548;2024-02-23T00:24:38;8.10;99.90
29813;DHT22;16707;48.106;11.548;2024-02-23T00:27:06;8.00;99.90
29813;DHT22;16707;48.106;11.548;2024-02-23T00:29:32;8.00;99.90
29813;DHT22;16707;48.106;11.548;2024-02-23T00:32:01;8.10;99.90
29813;DHT22;16707;48.106;11.548;2024-02-23T00:34:28;8.00;99.90
29813;DHT22;16707;48.106;11.548;2024-02-23T00:36:55;8.00;99.90
29813;DHT22;16707;48.106;11.548;2024-02-23T00:39:22;8.00;99.90
29813;DHT22;16707;48.106;11.548;2024-02-23T00:41:49;7.90;99.90
29813;DHT22;16707;48.106;11.548;2024-02-23T00:44:16;7.90;99.90
29813;DHT22;16707;48.106;11.548;2024-02-23T00:46:42;7.90;99.90
29813;DHT22;16707;48.106;11.548;2024-02-23T00:49:11;7.90;99.90
29813;DHT22;16707;48.106;11.548;2024-02-23T00:51:37;7.90;99.90
29813;DHT22;16707;48.106;11.548;2024-02-23T00:54:04;7.80;99.90
29813;DHT22;16707;48.106;11.548;2024-02-23T00:56:31;7.80;99.90
29813;DHT22;16707;48.106;11.548;2024-02-23T00:58:57;7.90;99.90
29813;DHT22;16707;48.106;11.548;2024-02-23T01:01:24;7.90;99.90
29813;DHT22;16707;48.106;11.548;2024-02-23T01:03:52;7.80;99.90
29813;DHT22;16707;48.106;11.548;2024-02-23T01:06:20;7.80;99.90
29813;DHT22;16707;48.106;11.548;2024-02-23T01:08:46;7.70;99.90
29813;DHT22;16707;48.106;11.548;2024-02-23T01:11:13;7.70;99.90
29813;DHT22;16707;48.106;11.548;2024-02-23T01:13:40;7.70;99.90
29813;DHT22;16707;48.106;11.548;2024-02-23T01:16:07;7.80;99.90
29813;DHT22;16707;48.106;11.548;2024-02-23T01:18:33;7.80;99.90
29813;DHT22;16707;48.106;11.548;2024-02-23T01:21:00;7.70;99.90
29813;DHT22;16707;48.106;11.548;2024-02-23T01:23:28;7.80;99.90
29813;DHT22;16707;48.106;11.548;2024-02-23T01:25:55;7.80;99.90
29813;DHT22;16707;48.106;11.548;2024-02-23T01:28:24;7.80;99.90
29813;DHT22;16707;48.106;11.548;2024-02-23T01:30:50;7.80;99.90
29813;DHT22;16707;48.106;11.548;2024-02-23T01:33:17;7.80;99.90
29813;DHT22;16707;48.106;11.548;2024-02-23T01:35:44;7.90;99.90
29813;DHT22;16707;48.106;11.548;2024-02-23T01:38:10;7.80;99.90
29813;DHT22;16707;48.106;11.548;2024-02-23T01:40:45;7.80;99.90
29813;DHT22;16707;48.106;11.548;2024-02-23T01:43:12;7.70;99.90
29813;DHT22;16707;48.106;11.548;2024-02-23T01:45:39;7.60;99.90
29813;DHT22;16707;48.106;11.548;2024-02-23T01:48:06;7.60;99.90
29813;DHT22;16707;48.106;11.548;2024-02-23T01:50:33;7.60;99.90
29813;DHT22;16707;48.106;11.548;2024-02-23T01:53:00;7.60;99.90
29813;DHT22;16707;48.106;11.548;2024-02-23T01:55:27;7.50;99.90
29813;DHT22;16707;48.106;11.548;2024-02-23T01:57:56;7.40;99.90
29813;DHT22;16707;48.106;11.548;2024-02-23T02:00:23;7.30;99.90
29813;DHT22;16707;48.106;11.548;2024-02-23T02:02:49;7.20;99.90
29813;DHT22;16707;48.106;11.548;2024-02-23T02:05:16;7.10;99.90
29813;DHT22;16707;48.106;11.548;2024-02-23T02:07:43;7.20;99.90
29813;DHT22;16707;48.106;11.548;2024-02-23T02:10:11;7.20;99.90
29813;DHT22;16707;48.106;11.548;2024-02-23T02:12:38;7.20;99.90
29813;DHT22;16707;48.106;11.548;2024-02-23T02:15:07;7.20;99.90
29813;DHT22;16707;48.106;11.548;2024-02-23T02:17:35;7.20;99.90
29813;DHT22;16707;48.106;11.548;2024-02-23T02:20:02;7.20;99.90
29813;DHT22;16707;48.106;11.548;2024-02-23T02:22:31;7.20;99.90
29813;DHT22;16707;48.106;11.548;2024-02-23T02:24:58;7.20;99.90
29813;DHT22;16707;48.106;11.548;2024-02-23T02:27:25;7.20;99.90
29813;DHT22;16707;48.106;11.548;2024-02-23T02:29:52;7.20;99.90
29813;DHT22;16707;48.106;11.548;2024-02-23T02:32:20;7.30;99.90
29813;DHT22;16707;48.106;11.548;2024-02-23T02:34:46;7.30;99.90
29813;DHT22;16707;48.106;11.548;2024-02-23T02:37:13;7.40;99.90
29813;DHT22;16707;48.106;11.548;2024-02-23T02:39:40;7.30;99.90
29813;DHT22;16707;48.106;11.548;2024-02-23T02:42:07;7.40;99.90
29813;DHT22;16707;48.106;11.548;2024-02-23T02:44:33;7.30;99.90
29813;DHT22;16707;48.106;11.548;2024-02-23T02:47:00;7.40;99.90
29813;DHT22;16707;48.106;11.548;2024-02-23T02:49:28;7.40;99.90
29813;DHT22;16707;48.106;11.548;2024-02-23T02:51:55;7.40;99.90
29813;DHT22;16707;48.106;11.548;2024-02-23T02:54:21;7.30;99.90
29813;DHT22;16707;48.106;11.548;2024-02-23T02:56:48;7.40;99.90
29813;DHT22;16707;48.106;11.548;2024-02-23T02:59:16;7.40;99.90
29813;DHT22;16707;48.106;11.548;2024-02-23T03:01:43;7.40;99.90
29813;DHT22;16707;48.106;11.548;2024-02-23T03:04:11;7.40;99.90
29813;DHT22;16707;48.106;11.548;2024-02-23T03:06:39;7.30;99.90
29813;DHT22;16707;48.106;11.548;2024-02-23T03:09:05;7.30;99.90
29813;DHT22;16707;48.106;11.548;2024-02-23T03:11:33;7.30;99.90
29813;DHT22;16707;48.106;11.548;2024-02-23T03:13:59;7.30;99.90
29813;DHT22;16707;48.106;11.548;2024-02-23T03:16:26;7.30;99.90
29813;DHT22;16707;48.106;11.548;2024-02-23T03:18:54;7.30;99.90
29813;DHT22;16707;48.106;11.548;2024-02-23T03:21:21;7.30;99.90
29813;DHT22;16707;48.106;11.548;2024-02-23T03:23:49;7.30;99.90
29813;DHT22;16707;48.106;11.548;2024-02-23T03:26:15;7.30;99.90
29813;DHT22;16707;48.106;11.548;2024-02-23T03:28:42;7.30;99.90
29813;DHT22;16707;48.106;11.548;2024-02-23T03:31:09;7.30;99.90
29813;DHT22;16707;48.106;11.548;2024-02-23T03:33:36;7.20;99.90
29813;DHT22;16707;48.106;11.548;2024-02-23T03:36:03;7.30;99.90
29813;DHT22;16707;48.106;11.548;2024-02-23T03:38:29;7.30;99.90
29813;DHT22;16707;48.106;11.548;2024-02-23T03:40:57;7.30;99.90
29813;DHT22;16707;48.106;11.548;2024-02-23T03:43:24;7.20;99.90
29813;DHT22;16707;48.106;11.548;2024-02-23T03:45:51;7.20;99.90
29813;DHT22;16707;48.106;11.548;2024-02-23T03:48:18;7.20;99.90
29813;DHT22;16707;48.106;11.548;2024-02-23T03:50:45;7.20;99.90
29813;DHT22;16707;48.106;11.548;2024-02-23T03:53:12;7.20;99.90
29813;DHT22;16707;48.106;11.548;2024-02-23T03:55:38;7.20;99.90
29813;DHT22;16707;48.106;11.548;2024-02-23T03:58:06;7.20;99.90
29813;DHT22;16707;48.106;11.548;2024-02-23T04:00:33;7.10;99.90
29813;DHT22;16707;48.106;11.548;2024-02-23T04:03:00;7.10;99.90
29813;DHT22;16707;48.106;11.548;2024-02-23T04:05:26;7.00;99.90
29813;DHT22;16707;48.106;11.548;2024-02-23T04:07:53;6.90;99.90
29813;DHT22;16707;48.106;11.548;2024-02-23T04:10:20;6.90;99.90
29813;DHT22;16707;48.106;11.548;2024-02-23T04:12:47;6.90;99.90
29813;DHT22;16707;48.106;11.548;2024-02-23T04:15:15;6.80;99.90
29813;DHT22;16707;48.106;11.548;2024-02-23T04:17:41;6.80;99.90
29813;DHT22;16707;48.106;11.548;2024-02-23T04:20:08;6.80;99.90
29813;DHT22;16707;48.106;11.548;2024-02-23T04:22:36;6.80;99.90
29813;DHT22;16707;48.106;11.548;2024-02-23T04:25:03;6.80;99.90
29813;DHT22;16707;48.106;11.548;2024-02-23T04:27:30;6.70;99.90
29813;DHT22;16707;48.106;11.548;2024-02-23T04:29:57;6.70;99.90
29813;DHT22;16707;48.106;11.548;2024-02-23T04:32:25;6.60;99.90
29813;DHT22;16707;48.106;11.548;2024-02-23T04:34:51;6.70;99.90
29813;DHT22;16707;48.106;11.548;2024-02-23T04:37:18;6.60;99.90
29813;DHT22;16707;48.106;11.548;2024-02-23T04:39:45;6.60;99.90
29813;DHT22;16707;48.106;11.548;2024-02-23T04:42:12;6.50;99.90
29813;DHT22;16707;48.106;11.548;2024-02-23T04:44:40;6.50;99.90
29813;DHT22;16707;48.106;11.548;2024-02-23T04:47:07;6.40;99.90
29813;DHT22;16707;48.106;11.548;2024-02-23T04:49:35;6.40;99.90
29813;DHT22;16707;48.106;11.548;2024-02-23T04:52:02;6.30;99.90
29813;DHT22;16707;48.106;11.548;2024-02-23T04:54:29;6.20;99.90
29813;DHT22;16707;48.106;11.548;2024-02-23T04:56:55;6.20;99.90
29813;DHT22;16707;48.106;11.548;2024-02-23T04:59:22;6.30;99.90
29813;DHT22;16707;48.106;11.548;2024-02-23T05:01:49;6.20;99.90
29813;DHT22;16707;48.106;11.548;2024-02-23T05:04:15;6.30;99.90
29813;DHT22;16707;48.106;11.548;2024-02-23T05:06:43;6.20;99.90
29813;DHT22;16707;48.106;11.548;2024-02-23T05:09:10;6.20;99.90
29813;DHT22;16707;48.106;11.548;2024-02-23T05:11:37;6.00;99.90
29813;DHT22;16707;48.106;11.548;2024-02-23T05:14:04;6.00;99.90
29813;DHT22;16707;48.106;11.548;2024-02-23T05:16:31;5.80;99.90
29813;DHT22;16707;48.106;11.548;2024-02-23T05:18:58;5.80;99.90
29813;DHT22;16707;48.106;11.548;2024-02-23T05:21:24;5.80;99.90
29813;DHT22;16707;48.106;11.548;2024-02-23T05:23:53;5.80;99.90
29813;DHT22;16707;48.106;11.548;2024-02-23T05:26:19;5.80;99.90
29813;DHT22;16707;48.106;11.548;2024-02-23T05:28:46;5.70;99.90
29813;DHT22;16707;48.106;11.548;2024-02-23T05:31:13;5.80;99.90
29813;DHT22;16707;48.106;11.548;2024-02-23T05:33:39;5.80;99.90
29813;DHT22;16707;48.106;11.548;2024-02-23T05:36:06;5.70;99.90
29813;DHT22;16707;48.106;11.548;2024-02-23T05:38:33;5.70;99.90
29813;DHT22;16707;48.106;11.548;2024-02-23T05:41:01;5.60;99.90
29813;DHT22;16707;48.106;11.548;2024-02-23T05:43:28;5.60;99.90
29813;DHT22;16707;48.106;11.548;2024-02-23T05:45:55;5.60;99.90
29813;DHT22;16707;48.106;11.548;2024-02-23T05:48:23;5.70;99.90
29813;DHT22;16707;48.106;11.548;2024-02-23T05:50:50;5.70;99.90
29813;DHT22;16707;48.106;11.548;2024-02-23T05:53:18;5.70;99.90
29813;DHT22;16707;48.106;11.548;2024-02-23T05:55:44;5.70;99.90
29813;DHT22;16707;48.106;11.548;2024-02-23T05:58:12;5.70;99.90
29813;DHT22;16707;48.106;11.548;2024-02-23T06:00:41;5.60;99.90
29813;DHT22;16707;48.106;11.548;2024-02-23T06:03:08;5.60;99.90
29813;DHT22;16707;48.106;11.548;2024-02-23T06:05:35;5.60;99.90
29813;DHT22;16707;48.106;11.548;2024-02-23T06:08:02;5.60;99.90
29813;DHT22;16707;48.106;11.548;2024-02-23T06:10:28;5.70;99.90
29813;DHT22;16707;48.106;11.548;2024-02-23T06:12:55;5.70;99.90
29813;DHT22;16707;48.106;11.548;2024-02-23T06:15:23;5.60;99.90
29813;DHT22;16707;48.106;11.548;2024-02-23T06:17:50;5.70;99.90
29813;DHT22;16707;48.106;11.548;2024-02-23T06:20:16;5.70;99.90
29813;DHT22;16707;48.106;11.548;2024-02-23T06:22:43;5.80;99.90
29813;DHT22;16707;48.106;11.548;2024-02-23T06:25:10;5.70;99.90
29813;DHT22;16707;48.106;11.548;2024-02-23T06:27:37;5.80;99.90
29813;DHT22;16707;48.106;11.548;2024-02-23T06:30:04;5.80;99.90
29813;DHT22;16707;48.106;11.548;2024-02-23T06:32:33;6.20;99.90
29813;DHT22;16707;48.106;11.548;2024-02-23T06:34:59;6.20;99.90
29813;DHT22;16707;48.106;11.548;2024-02-23T06:37:28;6.20;99.90
29813;DHT22;16707;48.106;11.548;2024-02-23T06:39:54;6.30;99.90
29813;DHT22;16707;48.106;11.548;2024-02-23T06:42:21;6.30;99.90
29813;DHT22;16707;48.106;11.548;2024-02-23T06:44:48;6.20;99.90
29813;DHT22;16707;48.106;11.548;2024-02-23T06:47:14;6.10;99.90
29813;DHT22;16707;48.106;11.548;2024-02-23T06:49:43;6.10;99.90
29813;DHT22;16707;48.106;11.548;2024-02-23T06:52:09;6.00;99.90
29813;DHT22;16707;48.106;11.548;2024-02-23T06:54:36;6.00;99.90
29813;DHT22;16707;48.106;11.548;2024-02-23T06:57:03;6.00;99.90
29813;DHT22;16707;48.106;11.548;2024-02-23T06:59:30;5.90;99.90
29813;DHT22;16707;48.106;11.548;2024-02-23T07:01:57;6.00;99.90
29813;DHT22;16707;48.106;11.548;2024-02-23T07:04:24;6.00;99.90
29813;DHT22;16707;48.106;11.548;2024-02-23T07:06:53;6.00;99.90
29813;DHT22;16707;48.106;11.548;2024-02-23T07:09:21;6.00;99.90
29813;DHT22;16707;48.106;11.548;2024-02-23T07:11:47;6.10;99.90
29813;DHT22;16707;48.106;11.548;2024-02-23T07:14:14;6.10;99.90
29813;DHT22;16707;48.106;11.548;2024-02-23T07:16:42;6.10;99.90
29813;DHT22;16707;48.106;11.548;2024-02-23T07:19:09;6.10;99.90
29813;DHT22;16707;48.106;11.548;2024-02-23T07:21:35;6.10;99.90
29813;DHT22;16707;48.106;11.548;2024-02-23T07:24:04;6.20;99.90
29813;DHT22;16707;48.106;11.548;2024-02-23T07:26:30;6.20;99.90
29813;DHT22;16707;48.106;11.548;2024-02-23T07:28:57;6.30;99.90
29813;DHT22;16707;48.106;11.548;2024-02-23T07:31:24;6.40;99.90
29813;DHT22;16707;48.106;11.548;2024-02-23T07:33:50;6.50;99.90
29813;DHT22;16707;48.106;11.548;2024-02-23T07:36:18;6.50;99.90
29813;DHT22;16707;48.106;11.548;2024-02-23T07:38:44;6.50;99.90
29813;DHT22;16707;48.106;11.548;2024-02-23T07:41:12;6.60;99.90
29813;DHT22;16707;48.106;11.548;2024-02-23T07:43:39;6.70;99.90
29813;DHT22;16707;48.106;11.548;2024-02-23T07:46:06;6.60;99.90
29813;DHT22;16707;48.106;11.548;2024-02-23T07:48:34;6.70;99.90
29813;DHT22;16707;48.106;11.548;2024-02-23T07:51:01;6.60;99.90
29813;DHT22;16707;48.106;11.548;2024-02-23T07:53:28;6.50;99.90
29813;DHT22;16707;48.106;11.548;2024-02-23T07:55:55;6.50;99.90
29813;DHT22;16707;48.106;11.548;2024-02-23T07:58:25;6.60;99.90
29813;DHT22;16707;48.106;11.548;2024-02-23T08:00:52;6.80;99.90
29813;DHT22;16707;48.106;11.548;2024-02-23T08:03:19;6.90;99.90
29813;DHT22;16707;48.106;11.548;2024-02-23T08:05:46;7.00;99.90
29813;DHT22;16707;48.106;11.548;2024-02-23T08:08:13;7.20;99.90
29813;DHT22;16707;48.106;11.548;2024-02-23T08:10:39;7.30;99.90
29813;DHT22;16707;48.106;11.548;2024-02-23T08:13:06;7.40;99.90
29813;DHT22;16707;48.106;11.548;2024-02-23T08:15:35;7.50;99.90
29813;DHT22;16707;48.106;11.548;2024-02-23T08:18:02;7.70;99.90
29813;DHT22;16707;48.106;11.548;2024-02-23T08:20:28;7.90;99.90
29813;DHT22;16707;48.106;11.548;2024-02-23T08:22:55;8.00;99.90
29813;DHT22;16707;48.106;11.548;2024-02-23T08:25:22;8.00;99.90
29813;DHT22;16707;48.106;11.548;2024-02-23T08:27:49;8.10;99.90
29813;DHT22;16707;48.106;11.548;2024-02-23T08:30:16;8.30;99.90
29813;DHT22;16707;48.106;11.548;2024-02-23T08:32:44;8.40;99.90
29813;DHT22;16707;48.106;11.548;2024-02-23T08:35:11;8.60;99.90
29813;DHT22;16707;48.106;11.548;2024-02-23T08:37:37;8.70;99.90
29813;DHT22;16707;48.106;11.548;2024-02-23T08:40:05;8.70;99.90
29813;DHT22;16707;48.106;11.548;2024-02-23T08:42:33;8.70;99.90
29813;DHT22;16707;48.106;11.548;2024-02-23T08:45:00;8.80;99.90
29813;DHT22;16707;48.106;11.548;2024-02-23T08:47:26;8.80;99.90
29813;DHT22;16707;48.106;11.548;2024-02-23T08:49:58;8.60;99.90
29813;DHT22;16707;48.106;11.548;2024-02-23T08:52:25;8.60;99.90
29813;DHT22;16707;48.106;11.548;2024-02-23T08:54:52;8.40;99.90
29813;DHT22;16707;48.106;11.548;2024-02-23T08:57:19;8.50;99.90
29813;DHT22;16707;48.106;11.548;2024-02-23T08:59:49;8.50;99.90
29813;DHT22;16707;48.106;11.548;2024-02-23T09:02:15;8.40;99.90
29813;DHT22;16707;48.106;11.548;2024-02-23T09:04:42;8.30;99.90
29813;DHT22;16707;48.106;11.548;2024-02-23T09:07:11;8.40;99.90
29813;DHT22;16707;48.106;11.548;2024-02-23T09:09:38;8.40;99.90
29813;DHT22;16707;48.106;11.548;2024-02-23T09:12:05;8.30;99.90
29813;DHT22;16707;48.106;11.548;2024-02-23T09:14:35;8.30;99.90
29813;DHT22;16707;48.106;11.548;2024-02-23T09:17:03;8.30;99.90
29813;DHT22;16707;48.106;11.548;2024-02-23T09:19:29;8.30;99.90
29813;DHT22;16707;48.106;11.548;2024-02-23T09:21:56;8.10;99.90
29813;DHT22;16707;48.106;11.548;2024-02-23T09:24:26;7.90;99.90
29813;DHT22;16707;48.106;11.548;2024-02-23T09:26:53;7.80;99.90
29813;DHT22;16707;48.106;11.548;2024-02-23T09:29:19;7.80;99.90
29813;DHT22;16707;48.106;11.548;2024-02-23T09:31:46;7.80;99.90
29813;DHT22;16707;48.106;11.548;2024-02-23T09:34:13;7.60;99.90
29813;DHT22;16707;48.106;11.548;2024-02-23T09:36:40;7.60;99.90
29813;DHT22;16707;48.106;11.548;2024-02-23T09:39:07;7.60;99.90
29813;DHT22;16707;48.106;11.548;2024-02-23T09:41:35;7.50;99.90
29813;DHT22;16707;48.106;11.548;2024-02-23T09:44:04;7.50;99.90
29813;DHT22;16707;48.106;11.548;2024-02-23T09:46:32;7.50;99.90
29813;DHT22;16707;48.106;11.548;2024-02-23T09:49:02;7.60;99.90
29813;DHT22;16707;48.106;11.548;2024-02-23T09:51:29;7.60;99.90
29813;DHT22;16707;48.106;11.548;2024-02-23T09:53:56;7.60;99.90
29813;DHT22;16707;48.106;11.548;2024-02-23T09:56:24;7.70;99.90
29813;DHT22;16707;48.106;11.548;2024-02-23T09:58:53;7.70;99.90
29813;DHT22;16707;48.106;11.548;2024-02-23T10:01:24;7.70;99.90
29813;DHT22;16707;48.106;11.548;2024-02-23T10:03:54;7.80;99.90
29813;DHT22;16707;48.106;11.548;2024-02-23T10:06:22;7.80;99.90
29813;DHT22;16707;48.106;11.548;2024-02-23T10:08:49;7.90;99.90
29813;DHT22;16707;48.106;11.548;2024-02-23T10:11:17;7.80;99.90
29813;DHT22;16707;48.106;11.548;2024-02-23T10:13:44;7.90;99.90
29813;DHT22;16707;48.106;11.548;2024-02-23T10:16:12;7.90;99.90
29813;DHT22;16707;48.106;11.548;2024-02-23T10:18:39;7.90;99.90
29813;DHT22;16707;48.106;11.548;2024-02-23T10:21:06;7.90;99.90
29813;DHT22;16707;48.106;11.548;2024-02-23T10:23:33;8.10;99.90
29813;DHT22;16707;48.106;11.548;2024-02-23T10:25:59;8.00;99.90
29813;DHT22;16707;48.106;11.548;2024-02-23T10:28:26;8.20;99.90
29813;DHT22;16707;48.106;11.548;2024-02-23T10:30:53;8.00;99.90
29813;DHT22;16707;48.106;11.548;2024-02-23T10:33:22;8.00;99.90
29813;DHT22;16707;48.106;11.548;2024-02-23T10:35:49;7.90;99.90
29813;DHT22;16707;48.106;11.548;2024-02-23T10:38:19;8.00;99.90
29813;DHT22;16707;48.106;11.548;2024-02-23T10:40:47;8.10;99.90
29813;DHT22;16707;48.106;11.548;2024-02-23T10:43:16;8.00;99.90
29813;DHT22;16707;48.106;11.548;2024-02-23T10:45:44;8.20;99.90
29813;DHT22;16707;48.106;11.548;2024-02-23T10:48:11;8.20;99.90
29813;DHT22;16707;48.106;11.548;2024-02-23T10:50:41;8.20;99.90
29813;DHT22;16707;48.106;11.548;2024-02-23T10:53:09;8.20;99.90
29813;DHT22;16707;48.106;11.548;2024-02-23T10:55:37;8.30;99.90
29813;DHT22;16707;48.106;11.548;2024-02-23T10:58:04;8.20;99.90
29813;DHT22;16707;48.106;11.548;2024-02-23T11:00:34;8.20;99.90
29813;DHT22;16707;48.106;11.548;2024-02-23T11:03:01;8.40;99.90
29813;DHT22;16707;48.106;11.548;2024-02-23T11:05:28;8.40;99.90
29813;DHT22;16707;48.106;11.548;2024-02-23T11:07:57;8.40;99.90
29813;DHT22;16707;48.106;11.548;2024-02-23T11:10:24;8.30;99.90
29813;DHT22;16707;48.106;11.548;2024-02-23T11:12:59;8.20;99.90
29813;DHT22;16707;48.106;11.548;2024-02-23T11:15:26;8.20;99.90
29813;DHT22;16707;48.106;11.548;2024-02-23T11:17:54;8.10;99.90
29813;DHT22;16707;48.106;11.548;2024-02-23T11:20:20;8.10;99.90
29813;DHT22;16707;48.106;11.548;2024-02-23T11:22:51;8.10;99.90
29813;DHT22;16707;48.106;11.548;2024-02-23T11:25:20;8.30;99.90
29813;DHT22;16707;48.106;11.548;2024-02-23T11:27:53;8.40;99.90
29813;DHT22;16707;48.106;11.548;2024-02-23T11:30:19;8.40;99.90
29813;DHT22;16707;48.106;11.548;2024-02-23T11:32:47;8.40;99.90
29813;DHT22;16707;48.106;11.548;2024-02-23T11:35:14;8.30;99.90
29813;DHT22;16707;48.106;11.548;2024-02-23T11:37:48;8.20;99.90
29813;DHT22;16707;48.106;11.548;2024-02-23T11:40:17;8.20;99.90
29813;DHT22;16707;48.106;11.548;2024-02-23T11:42:46;8.30;99.90
29813;DHT22;16707;48.106;11.548;2024-02-23T11:45:12;8.20;99.90
29813;DHT22;16707;48.106;11.548;2024-02-23T11:47:39;8.30;99.90
29813;DHT22;16707;48.106;11.548;2024-02-23T11:50:07;8.20;99.90
29813;DHT22;16707;48.106;11.548;2024-02-23T11:52:34;8.20;99.90
29813;DHT22;16707;48.106;11.548;2024-02-23T11:55:01;8.20;99.90
29813;DHT22;16707;48.106;11.548;2024-02-23T11:57:28;8.10;99.90
29813;DHT22;16707;48.106;11.548;2024-02-23T11:59:56;8.10;99.90
29813;DHT22;16707;48.106;11.548;2024-02-23T12:02:23;8.10;99.90
29813;DHT22;16707;48.106;11.548;2024-02-23T12:04:50;8.00;99.90
29813;DHT22;16707;48.106;11.548;2024-02-23T12:07:17;8.10;99.90
29813;DHT22;16707;48.106;11.548;2024-02-23T12:09:46;8.10;99.90
29813;DHT22;16707;48.106;11.548;2024-02-23T12:12:13;8.10;99.90
29813;DHT22;16707;48.106;11.548;2024-02-23T12:14:40;8.30;99.90
29813;DHT22;16707;48.106;11.548;2024-02-23T12:17:08;8.20;99.90
29813;DHT22;16707;48.106;11.548;2024-02-23T12:19:37;8.10;99.10
29813;DHT22;16707;48.106;11.548;2024-02-23T12:22:04;7.90;99.60
29813;DHT22;16707;48.106;11.548;2024-02-23T12:24:30;7.90;99.80
29813;DHT22;16707;48.106;11.548;2024-02-23T12:26:57;8.00;99.70
29813;DHT22;16707;48.106;11.548;2024-02-23T12:29:24;7.90;99.90
29813;DHT22;16707;48.106;11.548;2024-02-23T12:32:01;8.00;99.90
29813;DHT22;16707;48.106;11.548;2024-02-23T12:34:30;7.90;99.80
29813;DHT22;16707;48.106;11.548;2024-02-23T12:36:56;8.10;99.40
29813;DHT22;16707;48.106;11.548;2024-02-23T12:39:23;8.20;98.20
29813;DHT22;16707;48.106;11.548;2024-02-23T12:41:50;8.30;97.80
29813;DHT22;16707;48.106;11.548;2024-02-23T12:44:17;8.10;97.90
29813;DHT22;16707;48.106;11.548;2024-02-23T12:46:43;8.30;96.90
29813;DHT22;16707;48.106;11.548;2024-02-23T12:49:10;8.30;95.90
29813;DHT22;16707;48.106;11.548;2024-02-23T12:51:38;8.20;96.90
29813;DHT22;16707;48.106;11.548;2024-02-23T12:54:05;8.20;96.10
29813;DHT22;16707;48.106;11.548;2024-02-23T12:56:32;8.00;96.30
29813;DHT22;16707;48.106;11.548;2024-02-23T12:58:59;8.00;97.00
29813;DHT22;16707;48.106;11.548;2024-02-23T13:01:26;8.10;96.50
29813;DHT22;16707;48.106;11.548;2024-02-23T13:03:53;8.10;95.90
29813;DHT22;16707;48.106;11.548;2024-02-23T13:06:20;8.00;96.40
29813;DHT22;16707;48.106;11.548;2024-02-23T13:08:48;8.10;96.30
29813;DHT22;16707;48.106;11.548;2024-02-23T13:11:15;8.10;95.80
29813;DHT22;16707;48.106;11.548;2024-02-23T13:13:41;8.10;96.50
29813;DHT22;16707;48.106;11.548;2024-02-23T13:16:08;8.10;96.10
29813;DHT22;16707;48.106;11.548;2024-02-23T13:18:35;8.20;95.50
29813;DHT22;16707;48.106;11.548;2024-02-23T13:21:02;8.10;95.20
29813;DHT22;16707;48.106;11.548;2024-02-23T13:23:28;8.10;95.60
29813;DHT22;16707;48.106;11.548;2024-02-23T13:25:57;8.10;95.90
29813;DHT22;16707;48.106;11.548;2024-02-23T13:28:23;8.10;95.70
29813;DHT22;16707;48.106;11.548;2024-02-23T13:30:50;8.00;95.60
29813;DHT22;16707;48.106;11.548;2024-02-23T13:33:17;7.90;96.30
29813;DHT22;16707;48.106;11.548;2024-02-23T13:35:46;7.80;96.40
29813;DHT22;16707;48.106;11.548;2024-02-23T13:38:12;7.70;95.90
29813;DHT22;16707;48.106;11.548;2024-02-23T13:40:39;7.60;96.40
29813;DHT22;16707;48.106;11.548;2024-02-23T13:43:07;7.50;97.00
29813;DHT22;16707;48.106;11.548;2024-02-23T13:45:47;7.40;97.30
29813;DHT22;16707;48.106;11.548;2024-02-23T13:48:13;7.60;97.60
29813;DHT22;16707;48.106;11.548;2024-02-23T13:50:40;7.50;97.50
29813;DHT22;16707;48.106;11.548;2024-02-23T13:53:07;7.50;97.40
29813;DHT22;16707;48.106;11.548;2024-02-23T13:55:34;7.60;97.40
29813;DHT22;16707;48.106;11.548;2024-02-23T13:58:00;7.50;97.20
29813;DHT22;16707;48.106;11.548;2024-02-23T14:00:29;7.50;97.10
29813;DHT22;16707;48.106;11.548;2024-02-23T14:02:55;7.30;97.60
29813;DHT22;16707;48.106;11.548;2024-02-23T14:05:22;7.50;97.50
29813;DHT22;16707;48.106;11.548;2024-02-23T14:07:50;7.40;97.30
29813;DHT22;16707;48.106;11.548;2024-02-23T14:10:19;7.30;97.60
29813;DHT22;16707;48.106;11.548;2024-02-23T14:12:45;7.20;98.20
29813;DHT22;16707;48.106;11.548;2024-02-23T14:15:12;7.10;98.10
29813;DHT22;16707;48.106;11.548;2024-02-23T14:17:40;7.20;98.10
29813;DHT22;16707;48.106;11.548;2024-02-23T14:20:07;7.10;97.90
29813;DHT22;16707;48.106;11.548;2024-02-23T14:22:34;6.90;98.10
29813;DHT22;16707;48.106;11.548;2024-02-23T14:25:01;7.00;98.90
29813;DHT22;16707;48.106;11.548;2024-02-23T14:27:27;7.00;99.20
29813;DHT22;16707;48.106;11.548;2024-02-23T14:29:54;7.00;98.80
29813;DHT22;16707;48.106;11.548;2024-02-23T14:32:21;6.80;99.00
29813;DHT22;16707;48.106;11.548;2024-02-23T14:34:50;6.70;99.60
29813;DHT22;16707;48.106;11.548;2024-02-23T14:37:16;6.60;99.90
29813;DHT22;16707;48.106;11.548;2024-02-23T14:39:43;6.50;99.90
29813;DHT22;16707;48.106;11.548;2024-02-23T14:42:10;6.40;99.90
29813;DHT22;16707;48.106;11.548;2024-02-23T14:44:36;6.50;99.90
29813;DHT22;16707;48.106;11.548;2024-02-23T14:47:03;6.50;99.90
29813;DHT22;16707;48.106;11.548;2024-02-23T14:49:30;6.50;99.90
29813;DHT22;16707;48.106;11.548;2024-02-23T14:51:58;6.50;99.90
29813;DHT22;16707;48.106;11.548;2024-02-23T14:54:25;6.40;99.90
29813;DHT22;16707;48.106;11.548;2024-02-23T14:56:52;6.40;99.90
29813;DHT22;16707;48.106;11.548;2024-02-23T14:59:18;6.20;99.90
29813;DHT22;16707;48.106;11.548;2024-02-23T15:01:46;6.20;99.90
29813;DHT22;16707;48.106;11.548;2024-02-23T15:04:13;6.10;99.90
29813;DHT22;16707;48.106;11.548;2024-02-23T15:06:39;6.10;99.90
29813;DHT22;16707;48.106;11.548;2024-02-23T15:09:07;6.10;99.90
29813;DHT22;16707;48.106;11.548;2024-02-23T15:11:34;6.10;99.90
29813;DHT22;16707;48.106;11.548;2024-02-23T15:14:01;6.00;99.90
29813;DHT22;16707;48.106;11.548;2024-02-23T15:16:28;5.90;99.90
29813;DHT22;16707;48.106;11.548;2024-02-23T15:18:56;5.90;99.90
29813;DHT22;16707;48.106;11.548;2024-02-23T15:21:23;5.90;99.90
29813;DHT22;16707;48.106;11.548;2024-02-23T15:23:50;5.90;99.90
29813;DHT22;16707;48.106;11.548;2024-02-23T15:26:18;5.90;99.90
29813;DHT22;16707;48.106;11.548;2024-02-23T15:28:44;6.00;99.90